Dades meteomassalio
Diari Summary for Febrer 13, 2017 Units:  English    Metric   Both
« Previous Day
Next Day »
Diari Semanal Mensual Anual Personalitzat
  Maxima: Minima: Mijana:
Temperatura: TemperatureC °F 8.6 °F 11.8 °F
Rosada: DewpointC °F 7.0 °F 9.2 °F
Humitat: Humidity % 70 % 84 %
Velocitat del vent: WindSpeedKMH mph 0.0 mph 14.2 mph
Racha vent: WindSpeedGustKMH mph - -
Vent:- - ESE
Pressio: PressurehPa in 1007.3 in -
Pluja: 9.9 in    
Historical Graphs
 
 
Tabular Data for Febrer 13, 2017
Time Temperature Dew Point Pressure Wind Wind Speed Wind Gust Humidity Rainfall Rate (Hourly) solar Conditions
TemperatureC °F DewpointC °F PressurehPa in Calm     Humidity % HourlyPrecipMM in SolarRadiationWatts/m^2 W/m2 Conditions
00:00 12.0 °F 8.1 °F 1010.0 in SE 20.4 mph 20.4 mph 77 % 0.0 in 0.0 W/m2 CLR
00:05 12.1 °F 8.2 °F 1010.0 in SE 24.1 mph 24.1 mph 77 % 0.0 in 0.0 W/m2 CLR
00:10 12.1 °F 8.2 °F 1010.0 in ESE 24.1 mph 24.1 mph 77 % 0.0 in 0.0 W/m2 CLR
00:15 12.0 °F 7.9 °F 1010.0 in SE 20.4 mph 20.4 mph 76 % 0.0 in 0.0 W/m2 CLR
00:20 12.0 °F 7.9 °F 1010.0 in ESE 18.5 mph 18.5 mph 76 % 0.0 in 0.0 W/m2 CLR
00:25 11.9 °F 8.1 °F 1010.0 in ESE 19.3 mph 19.3 mph 77 % 0.0 in 0.0 W/m2 CLR
00:30 12.0 °F 8.1 °F 1010.0 in ESE 24.1 mph 24.1 mph 77 % 0.0 in 0.0 W/m2 CLR
00:35 11.9 °F 8.1 °F 1010.0 in ESE 22.2 mph 22.2 mph 77 % 0.0 in 0.0 W/m2 CLR
00:40 12.0 °F 8.1 °F 1010.0 in SE 18.5 mph 18.5 mph 77 % 0.0 in 0.0 W/m2 CLR
00:45 11.9 °F 7.8 °F 1010.0 in ESE 25.9 mph 25.9 mph 76 % 0.0 in 0.0 W/m2 CLR
00:50 12.1 °F 7.8 °F 1009.7 in SE 31.5 mph 31.5 mph 75 % 0.0 in 0.0 W/m2 CLR
00:55 12.1 °F 7.8 °F 1010.0 in SE 27.8 mph 27.8 mph 75 % 0.0 in 0.0 W/m2 CLR
01:00 12.2 °F 7.7 °F 1009.7 in SSE 29.6 mph 29.6 mph 74 % 0.0 in 0.0 W/m2 CLR
01:05 12.2 °F 7.3 °F 1009.7 in SE 33.3 mph 33.3 mph 72 % 0.0 in 0.0 W/m2 CLR
01:11 12.3 °F 7.0 °F 1009.7 in ESE 40.7 mph 40.7 mph 70 % 0.0 in 0.0 W/m2 CLR
01:15 12.4 °F 7.1 °F 1009.7 in SE 29.6 mph 29.6 mph 70 % 0.0 in 0.0 W/m2 CLR
01:21 12.4 °F 7.1 °F 1009.7 in SSE 27.8 mph 27.8 mph 70 % 0.0 in 0.0 W/m2 CLR
01:26 12.3 °F 7.2 °F 1009.7 in ESE 22.5 mph 22.5 mph 71 % 0.0 in 0.0 W/m2 CLR
01:31 12.2 °F 7.4 °F 1009.7 in East 20.4 mph 20.4 mph 73 % 0.0 in 0.0 W/m2 CLR
01:36 12.1 °F 7.6 °F 1009.7 in SE 24.1 mph 24.1 mph 74 % 0.0 in 0.0 W/m2 CLR
01:41 12.0 °F 7.7 °F 1009.4 in ESE 18.5 mph 18.5 mph 75 % 0.0 in 0.0 W/m2 CLR
01:46 11.9 °F 7.7 °F 1009.7 in SSE 30.6 mph 30.6 mph 75 % 0.0 in 0.0 W/m2 CLR
01:51 12.0 °F 7.9 °F 1009.4 in ESE 25.9 mph 25.9 mph 76 % 0.0 in 0.0 W/m2 CLR
01:56 12.0 °F 7.9 °F 1009.4 in ESE 24.1 mph 24.1 mph 76 % 0.0 in 0.0 W/m2 CLR
02:01 11.9 °F 7.8 °F 1009.4 in SE 27.8 mph 27.8 mph 76 % 0.0 in 0.0 W/m2 CLR
02:06 11.9 °F 8.0 °F 1009.4 in SE 29.6 mph 29.6 mph 77 % 0.0 in 0.0 W/m2 CLR
02:11 11.9 °F 8.0 °F 1009.0 in SE 24.1 mph 24.1 mph 77 % 0.0 in 0.0 W/m2 CLR
02:16 11.9 °F 8.0 °F 1009.4 in SE 24.1 mph 24.1 mph 77 % 0.0 in 0.0 W/m2 CLR
02:21 11.9 °F 8.0 °F 1009.4 in SE 29.6 mph 29.6 mph 77 % 0.0 in 0.0 W/m2 CLR
02:26 11.9 °F 8.1 °F 1009.4 in SE 29.0 mph 29.0 mph 77 % 0.0 in 0.0 W/m2 CLR
02:31 11.9 °F 8.2 °F 1009.4 in SE 25.9 mph 25.9 mph 78 % 0.0 in 0.0 W/m2 CLR
02:36 11.8 °F 8.1 °F 1009.4 in SE 27.8 mph 27.8 mph 78 % 0.0 in 0.0 W/m2 CLR
02:41 11.8 °F 8.3 °F 1009.0 in ESE 22.2 mph 22.2 mph 79 % 0.0 in 0.0 W/m2 CLR
02:46 11.7 °F 8.2 °F 1009.0 in SE 20.4 mph 20.4 mph 79 % 0.0 in 0.0 W/m2 CLR
02:51 11.7 °F 8.2 °F 1009.0 in SE 18.5 mph 18.5 mph 79 % 0.0 in 0.0 W/m2 CLR
02:56 11.7 °F 8.2 °F 1008.7 in ESE 22.2 mph 22.2 mph 79 % 0.0 in 0.0 W/m2 CLR
03:01 11.7 °F 8.2 °F 1008.7 in SE 31.5 mph 31.5 mph 79 % 0.0 in 0.0 W/m2 CLR
03:06 11.7 °F 8.2 °F 1008.7 in SE 35.2 mph 35.2 mph 79 % 0.0 in 0.0 W/m2 CLR
03:11 11.8 °F 8.3 °F 1008.4 in ESE 37.0 mph 37.0 mph 79 % 0.0 in 0.0 W/m2 CLR
03:16 11.8 °F 8.3 °F 1008.4 in SE 31.5 mph 31.5 mph 79 % 0.0 in 0.0 W/m2 CLR
03:21 11.7 °F 8.2 °F 1008.4 in SE 25.9 mph 25.9 mph 79 % 0.0 in 0.0 W/m2 CLR
03:26 11.7 °F 8.2 °F 1008.4 in SE 19.3 mph 19.3 mph 79 % 0.0 in 0.0 W/m2 CLR
03:31 11.6 °F 8.1 °F 1008.0 in SE 24.1 mph 24.1 mph 79 % 0.0 in 0.0 W/m2 CLR
03:36 11.7 °F 8.2 °F 1008.4 in ESE 31.5 mph 31.5 mph 79 % 0.0 in 0.0 W/m2 CLR
03:41 11.6 °F 8.1 °F 1008.7 in SE 22.2 mph 22.2 mph 79 % 0.0 in 0.0 W/m2 CLR
03:46 11.6 °F 8.1 °F 1008.7 in SE 24.1 mph 24.1 mph 79 % 0.0 in 0.0 W/m2 CLR
03:51 11.6 °F 8.1 °F 1008.4 in SE 18.5 mph 18.5 mph 79 % 0.0 in 0.0 W/m2 CLR
03:56 11.6 °F 8.1 °F 1008.4 in ESE 20.4 mph 20.4 mph 79 % 0.0 in 0.0 W/m2 CLR
04:01 11.6 °F 8.1 °F 1008.4 in ESE 29.6 mph 29.6 mph 79 % 0.0 in 0.0 W/m2 CLR
04:06 11.7 °F 8.2 °F 1008.7 in ESE 27.8 mph 27.8 mph 79 % 0.0 in 0.0 W/m2 CLR
04:11 11.7 °F 8.2 °F 1008.7 in ESE 24.1 mph 24.1 mph 79 % 0.0 in 0.0 W/m2 CLR
04:16 11.7 °F 8.2 °F 1008.7 in ESE 29.6 mph 29.6 mph 79 % 0.0 in 0.0 W/m2 CLR
04:21 11.7 °F 8.2 °F 1008.7 in ESE 31.5 mph 31.5 mph 79 % 0.0 in 0.0 W/m2 CLR
04:26 11.7 °F 8.2 °F 1008.7 in ESE 17.7 mph 17.7 mph 79 % 0.0 in 0.0 W/m2 CLR
04:31 11.7 °F 8.2 °F 1008.7 in ESE 25.9 mph 25.9 mph 79 % 0.0 in 0.0 W/m2 CLR
04:36 11.7 °F 8.2 °F 1008.7 in SE 20.4 mph 20.4 mph 79 % 0.0 in 0.0 W/m2 CLR
04:41 11.8 °F 8.1 °F 1008.7 in ESE 20.4 mph 20.4 mph 78 % 0.0 in 0.0 W/m2 CLR
04:46 11.8 °F 8.1 °F 1008.4 in ESE 16.7 mph 16.7 mph 78 % 0.0 in 0.0 W/m2 CLR
04:51 11.8 °F 8.1 °F 1008.4 in ESE 14.8 mph 14.8 mph 78 % 0.0 in 0.0 W/m2 CLR
04:56 11.8 °F 8.1 °F 1008.7 in SSE 7.4 mph 7.4 mph 78 % 0.0 in 0.0 W/m2 CLR
05:01 11.8 °F 8.1 °F 1008.7 in ESE 14.8 mph 14.8 mph 78 % 0.0 in 0.0 W/m2 CLR
05:06 11.8 °F 8.1 °F 1008.7 in SE 4.8 mph 4.8 mph 78 % 0.0 in 0.0 W/m2 CLR
05:11 11.8 °F 8.1 °F 1008.7 in East 14.8 mph 14.8 mph 78 % 0.0 in 0.0 W/m2 CLR
05:16 11.8 °F 8.1 °F 1008.4 in ENE 11.1 mph 11.1 mph 78 % 0.0 in 0.0 W/m2 CLR
05:21 11.8 °F 8.3 °F 1008.4 in East 16.7 mph 16.7 mph 79 % 0.0 in 0.0 W/m2 CLR
05:26 11.7 °F 8.4 °F 1008.4 in ESE 11.1 mph 11.1 mph 80 % 0.0 in 0.0 W/m2 CLR
05:31 11.7 °F 8.4 °F 1008.4 in SE 18.5 mph 18.5 mph 80 % 0.0 in 0.0 W/m2 CLR
05:36 11.7 °F 8.4 °F 1008.4 in SE 20.4 mph 20.4 mph 80 % 0.0 in 0.0 W/m2 CLR
05:41 11.8 °F 8.5 °F 1008.4 in SE 22.2 mph 22.2 mph 80 % 0.0 in 0.0 W/m2 CLR
05:46 11.9 °F 8.6 °F 1008.4 in SSE 20.4 mph 20.4 mph 80 % 0.0 in 0.0 W/m2 CLR
05:51 11.9 °F 8.6 °F 1008.4 in ESE 17.7 mph 17.7 mph 80 % 0.0 in 0.0 W/m2 CLR
05:56 11.9 °F 8.6 °F 1008.4 in ESE 22.2 mph 22.2 mph 80 % 0.0 in 0.0 W/m2 CLR
06:01 12.1 °F 8.9 °F 1008.4 in SE 18.5 mph 18.5 mph 81 % 0.0 in 0.0 W/m2 CLR
06:06 12.1 °F 8.9 °F 1008.4 in SE 24.1 mph 24.1 mph 81 % 0.0 in 0.0 W/m2 CLR
06:11 12.1 °F 8.9 °F 1008.4 in ESE 24.1 mph 24.1 mph 81 % 0.0 in 0.0 W/m2 CLR
06:16 12.1 °F 8.9 °F 1008.4 in ESE 24.1 mph 24.1 mph 81 % 0.0 in 0.0 W/m2 CLR
06:21 12.1 °F 8.9 °F 1008.7 in SE 25.9 mph 25.9 mph 81 % 0.0 in 0.0 W/m2 CLR
06:26 12.1 °F 9.1 °F 1008.4 in SSE 31.5 mph 31.5 mph 82 % 0.0 in 0.0 W/m2 CLR
06:31 12.2 °F 9.2 °F 1008.4 in ESE 20.4 mph 20.6 mph 82 % 0.0 in 0.0 W/m2 CLR
06:36 12.2 °F 9.2 °F 1008.0 in ESE 27.8 mph 27.8 mph 82 % 0.0 in 0.0 W/m2 CLR
06:41 12.2 °F 9.1 °F 1008.0 in ESE 25.9 mph 25.9 mph 81 % 0.0 in 0.0 W/m2 CLR
06:46 12.4 °F 9.2 °F 1008.0 in ESE 33.3 mph 33.3 mph 81 % 0.0 in 0.0 W/m2 CLR
06:51 12.4 °F 9.1 °F 1008.0 in ESE 33.3 mph 33.3 mph 80 % 0.0 in 0.0 W/m2 CLR
06:56 12.3 °F 9.2 °F 1008.4 in ESE 27.8 mph 27.8 mph 81 % 0.0 in 0.0 W/m2 CLR
07:01 12.4 °F 9.3 °F 1008.0 in ESE 31.5 mph 31.5 mph 81 % 0.0 in 0.0 W/m2 CLR
07:06 12.4 °F 9.2 °F 1008.0 in East 35.2 mph 35.2 mph 81 % 0.0 in 0.0 W/m2 CLR
07:12 12.4 °F 9.2 °F 1008.0 in ESE 29.6 mph 29.6 mph 81 % 0.0 in 0.0 W/m2 CLR
07:17 12.4 °F 9.3 °F 1008.0 in SE 27.4 mph 27.4 mph 81 % 0.0 in 0.0 W/m2 CLR
07:22 12.4 °F 9.2 °F 1008.0 in SE 25.9 mph 25.9 mph 81 % 0.0 in 0.0 W/m2 CLR
07:27 12.4 °F 9.3 °F 1008.0 in East 24.1 mph 24.1 mph 81 % 0.0 in 0.0 W/m2 CLR
07:32 12.4 °F 9.3 °F 1008.0 in ESE 27.8 mph 27.8 mph 81 % 0.0 in 0.0 W/m2 CLR
07:37 12.4 °F 9.3 °F 1008.0 in ESE 24.1 mph 24.1 mph 81 % 0.0 in 0.0 W/m2 CLR
07:42 12.4 °F 9.2 °F 1007.7 in East 22.5 mph 22.5 mph 81 % 0.0 in 0.0 W/m2 CLR
07:47 12.4 °F 9.3 °F 1007.7 in ESE 17.7 mph 18.8 mph 81 % 0.0 in 0.0 W/m2 OVC
07:52 12.4 °F 9.3 °F 1007.7 in ESE 24.1 mph 24.1 mph 81 % 0.0 in 0.0 W/m2 OVC
07:57 12.4 °F 9.3 °F 1007.3 in East 27.8 mph 27.8 mph 81 % 0.0 in 5.0 W/m2 OVC
08:02 12.4 °F 9.3 °F 1007.3 in ESE 20.4 mph 20.4 mph 81 % 0.0 in 7.0 W/m2 BKN
08:07 12.4 °F 9.2 °F 1007.3 in ESE 20.4 mph 20.4 mph 81 % 0.0 in 9.0 W/m2 BKN
08:12 12.4 °F 9.2 °F 1007.3 in ESE 25.9 mph 25.9 mph 81 % 0.0 in 12.0 W/m2 BKN
08:17 12.4 °F 9.3 °F 1007.7 in ESE 18.5 mph 18.5 mph 81 % 0.0 in 18.0 W/m2 BKN
08:22 12.4 °F 9.2 °F 1007.7 in ESE 18.5 mph 18.5 mph 81 % 0.0 in 26.0 W/m2 BKN
08:27 12.5 °F 9.3 °F 1007.7 in ESE 18.5 mph 18.5 mph 81 % 0.0 in 28.0 W/m2 BKN
08:32 12.5 °F 9.3 °F 1007.7 in ESE 20.4 mph 20.4 mph 81 % 0.0 in 49.0 W/m2 SCT
08:37 12.5 °F 9.3 °F 1007.7 in ESE 22.2 mph 22.2 mph 81 % 0.0 in 65.0 W/m2 SCT
08:42 12.5 °F 9.5 °F 1007.7 in East 20.9 mph 20.9 mph 82 % 0.0 in 81.0 W/m2 FEW
08:47 12.5 °F 9.5 °F 1007.7 in East 20.4 mph 20.4 mph 82 % 0.0 in 91.0 W/m2 CLR
08:52 12.6 °F 9.6 °F 1008.0 in East 24.1 mph 24.1 mph 82 % 0.0 in 88.0 W/m2 CLR
08:57 12.6 °F 9.6 °F 1008.0 in ESE 25.9 mph 25.9 mph 82 % 0.0 in 65.0 W/m2 FEW
09:02 12.7 °F 9.7 °F 1008.4 in ESE 25.9 mph 25.9 mph 82 % 0.0 in 74.0 W/m2 FEW
09:07 12.7 °F 9.6 °F 1008.4 in East 25.9 mph 25.9 mph 81 % 0.0 in 40.0 W/m2 SCT
09:12 12.8 °F 9.6 °F 1008.7 in East 22.2 mph 22.2 mph 81 % 0.0 in 56.0 W/m2 SCT
09:17 12.8 °F 9.4 °F 1008.7 in ESE 31.5 mph 31.5 mph 80 % 0.0 in 81.0 W/m2 SCT
09:22 12.9 °F 9.5 °F 1008.7 in ESE 18.5 mph 18.5 mph 80 % 0.0 in 72.0 W/m2 FEW
09:27 12.9 °F 9.6 °F 1008.7 in SE 19.3 mph 19.3 mph 80 % 0.0 in 70.0 W/m2 FEW
09:32 12.9 °F 9.6 °F 1008.7 in ESE 18.5 mph 18.5 mph 80 % 0.0 in 32.0 W/m2 SCT
09:37 12.9 °F 9.6 °F 1008.7 in ESE 22.2 mph 22.2 mph 80 % 0.0 in 19.0 W/m2 BKN
09:42 12.9 °F 9.5 °F 1008.7 in SE 24.1 mph 24.1 mph 80 % 0.0 in 21.0 W/m2 BKN
09:47 12.8 °F 9.4 °F 1009.0 in ESE 18.5 mph 18.5 mph 80 % 0.0 in 25.0 W/m2 BKN
09:52 12.8 °F 9.4 °F 1009.0 in SE 20.4 mph 20.4 mph 80 % 0.0 in 18.0 W/m2 BKN
09:57 12.8 °F 9.6 °F 1009.4 in ESE 22.2 mph 22.2 mph 81 % 0.0 in 12.0 W/m2 BKN
10:02 12.7 °F 9.6 °F 1009.4 in SSE 20.4 mph 20.4 mph 81 % 0.0 in 12.0 W/m2 BKN
10:07 12.6 °F 9.6 °F 1009.4 in SE 18.5 mph 18.5 mph 82 % 0.0 in 16.0 W/m2 BKN
10:12 12.4 °F 9.6 °F 1009.4 in ESE 14.8 mph 14.8 mph 83 % 0.3 in 26.0 W/m2 RA
10:17 12.3 °F 9.7 °F 1009.4 in SE 7.4 mph 7.4 mph 84 % 0.3 in 16.0 W/m2 BKN
10:22 12.2 °F 9.6 °F 1009.4 in SE 9.3 mph 9.3 mph 84 % 0.3 in 14.0 W/m2 BKN
10:27 12.1 °F 9.7 °F 1009.4 in SE 13.0 mph 13.0 mph 85 % 0.3 in 12.0 W/m2 BKN
10:32 12.1 °F 9.6 °F 1009.7 in SE 5.6 mph 5.6 mph 85 % 0.3 in 11.0 W/m2 BKN
10:37 12.0 °F 9.7 °F 1009.7 in Calm     86 % 0.3 in 16.0 W/m2 BKN
10:42 11.9 °F 9.7 °F 1009.7 in Calm     86 % 0.5 in 16.0 W/m2 RA
10:47 11.9 °F 9.6 °F 1009.7 in SE 9.3 mph 9.3 mph 86 % 0.8 in 28.0 W/m2 RA
10:52 11.9 °F 9.8 °F 1009.7 in SE 5.6 mph 5.6 mph 87 % 1.0 in 35.0 W/m2 RA
10:57 11.8 °F 9.7 °F 1009.7 in Calm     87 % 1.3 in 26.0 W/m2 RA
11:02 11.7 °F 9.7 °F 1010.0 in ESE 5.6 mph 5.6 mph 88 % 1.5 in 33.0 W/m2 RA
11:07 11.6 °F 9.8 °F 1010.0 in Calm     89 % 2.0 in 25.0 W/m2 RA
11:12 11.5 °F 9.7 °F 1010.4 in SSE 4.8 mph 4.8 mph 89 % 1.8 in 12.0 W/m2 BKN
11:17 11.5 °F 9.9 °F 1010.4 in SE 5.6 mph 5.6 mph 90 % 2.3 in 11.0 W/m2 RA
11:22 11.4 °F 9.9 °F 1010.4 in SE 9.3 mph 9.3 mph 90 % 2.5 in 12.0 W/m2 RA
11:27 11.4 °F 9.8 °F 1010.4 in ESE 11.1 mph 11.1 mph 90 % 3.3 in 30.0 W/m2 RA
11:32 11.3 °F 9.7 °F 1010.4 in East 11.1 mph 11.1 mph 90 % 4.1 in 23.0 W/m2 RA
11:37 11.1 °F 9.7 °F 1010.0 in ESE 13.0 mph 13.0 mph 91 % 4.6 in 18.0 W/m2 RA
11:42 11.1 °F 9.7 °F 1010.0 in ESE 9.7 mph 9.7 mph 91 % 4.6 in 16.0 W/m2 RA
11:47 11.1 °F 9.8 °F 1010.0 in SE 7.4 mph 7.4 mph 92 % 4.3 in 23.0 W/m2 RA
11:52 11.1 °F 9.8 °F 1010.0 in SE 7.4 mph 7.4 mph 92 % 4.6 in 19.0 W/m2 RA
11:57 11.1 °F 9.8 °F 1010.0 in SE 9.3 mph 9.3 mph 92 % 4.8 in 21.0 W/m2 RA
12:02 11.1 °F 9.8 °F 1010.0 in Calm     92 % 4.8 in 25.0 W/m2 RA
12:07 11.1 °F 9.8 °F 1010.0 in ESE 7.4 mph 7.4 mph 92 % 5.1 in 33.0 W/m2 RA
12:12 11.0 °F 9.7 °F 1009.7 in ENE 14.8 mph 14.8 mph 92 % 5.3 in 39.0 W/m2 RA
12:17 11.1 °F 9.8 °F 1009.4 in East 24.1 mph 24.1 mph 92 % 5.1 in 42.0 W/m2 RA
12:22 11.2 °F 9.9 °F 1009.0 in East 29.6 mph 29.6 mph 92 % 5.1 in 63.0 W/m2 RA
12:27 11.2 °F 9.9 °F 1009.0 in ESE 25.9 mph 25.9 mph 92 % 4.3 in 81.0 W/m2 SCT
12:32 11.3 °F 10.0 °F 1009.0 in ESE 19.3 mph 19.3 mph 92 % 3.8 in 84.0 W/m2 FEW
12:37 11.3 °F 10.1 °F 1009.4 in ESE 25.9 mph 25.9 mph 92 % 3.3 in 83.0 W/m2 RA
12:42 11.4 °F 10.1 °F 1009.0 in ESE 24.1 mph 24.1 mph 92 % 3.3 in 72.0 W/m2 FEW
12:47 11.4 °F 9.9 °F 1009.0 in ESE 27.8 mph 27.8 mph 91 % 3.0 in 104.0 W/m2 FEW
12:53 11.5 °F 10.1 °F 1009.0 in ESE 18.5 mph 18.5 mph 91 % 2.5 in 107.0 W/m2 CLR
12:58 11.4 °F 10.0 °F 1009.4 in SE 14.8 mph 14.8 mph 91 % 2.3 in 107.0 W/m2 CLR
13:03 11.6 °F 10.1 °F 1009.4 in SSE 18.5 mph 18.5 mph 91 % 1.8 in 98.0 W/m2 CLR
13:08 11.6 °F 10.2 °F 1009.4 in ESE 16.7 mph 16.7 mph 91 % 1.3 in 95.0 W/m2 CLR
13:13 11.7 °F 10.2 °F 1009.4 in East 14.8 mph 14.8 mph 91 % 0.8 in 83.0 W/m2 CLR
13:18 11.7 °F 10.3 °F 1009.4 in ESE 14.8 mph 14.8 mph 91 % 0.5 in 76.0 W/m2 FEW
13:23 11.7 °F 10.3 °F 1009.4 in East 11.3 mph 11.3 mph 91 % 0.3 in 107.0 W/m2 FEW
13:28 11.8 °F 10.3 °F 1009.0 in East 16.7 mph 16.7 mph 91 % 0.3 in 244.0 W/m2 CLR
13:33 11.9 °F 10.4 °F 1009.0 in ESE 14.8 mph 14.8 mph 91 % 0.3 in 345.0 W/m2 CLR
13:38 12.2 °F 10.7 °F 1009.0 in ESE 13.0 mph 13.0 mph 91 % 0.0 in 640.0 W/m2 CLR
13:43 12.3 °F 10.8 °F 1009.0 in ESE 16.7 mph 16.7 mph 91 % 0.0 in 274.0 W/m2 CLR
13:48 12.4 °F 10.9 °F 1009.0 in ESE 16.7 mph 16.7 mph 91 % 0.0 in 167.0 W/m2 CLR
13:53 12.3 °F 10.7 °F 1009.0 in ESE 19.3 mph 19.3 mph 90 % 0.0 in 376.0 W/m2 CLR
13:58 12.5 °F 10.9 °F 1009.0 in ESE 14.8 mph 14.8 mph 90 % 0.0 in 392.0 W/m2 CLR
14:03 12.6 °F 11.0 °F 1009.0 in East 18.5 mph 18.5 mph 90 % 0.0 in 318.0 W/m2 CLR
14:08 12.7 °F 11.1 °F 1009.0 in ESE 22.5 mph 22.5 mph 90 % 0.0 in 213.0 W/m2 CLR
14:13 12.7 °F 10.9 °F 1009.0 in ESE 18.5 mph 18.5 mph 89 % 0.0 in 178.0 W/m2 CLR
14:18 12.6 °F 10.8 °F 1009.0 in ESE 16.7 mph 16.7 mph 89 % 0.0 in 258.0 W/m2 CLR
14:23 12.7 °F 10.9 °F 1009.0 in SE 19.3 mph 19.3 mph 89 % 0.0 in 190.0 W/m2 CLR
14:28 12.7 °F 10.9 °F 1009.0 in SE 18.5 mph 18.5 mph 89 % 0.0 in 156.0 W/m2 CLR
14:33 12.7 °F 10.9 °F 1009.0 in ESE 11.1 mph 11.1 mph 89 % 0.0 in 206.0 W/m2 CLR
14:38 12.8 °F 11.1 °F 1009.0 in East 17.7 mph 17.7 mph 89 % 0.0 in 260.0 W/m2 CLR
14:43 12.9 °F 11.1 °F 1009.0 in SE 13.0 mph 13.0 mph 89 % 0.0 in 309.0 W/m2 CLR
14:48 13.0 °F 11.2 °F 1009.0 in East 13.0 mph 13.0 mph 89 % 0.0 in 257.0 W/m2 CLR
14:53 13.2 °F 11.4 °F 1009.0 in ESE 11.1 mph 11.1 mph 89 % 0.0 in 216.0 W/m2 CLR
14:58 13.2 °F 11.4 °F 1009.0 in Calm     89 % 0.0 in 267.0 W/m2 CLR
15:03 13.4 °F 11.7 °F 1009.0 in East 5.6 mph 5.6 mph 89 % 0.0 in 302.0 W/m2 CLR
15:08 13.6 °F 11.7 °F 1009.0 in ESE 14.8 mph 14.8 mph 88 % 0.0 in 214.0 W/m2 CLR
15:13 13.7 °F 11.4 °F 1009.0 in ESE 13.0 mph 13.0 mph 86 % 0.0 in 193.0 W/m2 CLR
15:18 13.8 °F 11.7 °F 1009.0 in ESE 14.5 mph 14.5 mph 87 % 0.0 in 204.0 W/m2 CLR
15:23 13.8 °F 11.3 °F 1009.0 in ESE 18.5 mph 18.5 mph 85 % 0.0 in 199.0 W/m2 CLR
15:28 13.8 °F 11.3 °F 1009.0 in East 18.5 mph 18.5 mph 85 % 0.0 in 206.0 W/m2 CLR
15:33 13.8 °F 11.2 °F 1009.0 in ESE 14.8 mph 14.8 mph 84 % 0.0 in 221.0 W/m2 CLR
15:38 13.8 °F 11.2 °F 1009.0 in ESE 13.0 mph 13.0 mph 84 % 0.0 in 211.0 W/m2 CLR
15:43 13.8 °F 11.2 °F 1009.0 in SSE 13.0 mph 13.0 mph 84 % 0.0 in 183.0 W/m2 CLR
15:48 13.9 °F 11.1 °F 1009.0 in ESE 20.4 mph 20.4 mph 83 % 0.0 in 165.0 W/m2 CLR
15:53 14.0 °F 11.0 °F 1009.0 in SE 16.7 mph 16.7 mph 82 % 0.0 in 153.0 W/m2 CLR
15:58 14.1 °F 11.1 °F 1009.4 in SSE 5.6 mph 5.6 mph 82 % 0.0 in 83.0 W/m2 CLR
16:03 14.0 °F 11.0 °F 1009.4 in SE 13.0 mph 13.0 mph 82 % 0.0 in 69.0 W/m2 FEW
16:08 14.0 °F 11.0 °F 1009.4 in SSE 20.4 mph 20.4 mph 82 % 0.0 in 77.0 W/m2 FEW
16:13 14.0 °F 10.8 °F 1009.4 in SSE 16.7 mph 16.7 mph 81 % 0.0 in 86.0 W/m2 FEW
16:18 14.0 °F 10.8 °F 1009.4 in SE 14.8 mph 14.8 mph 81 % 0.0 in 72.0 W/m2 FEW
16:23 14.0 °F 10.8 °F 1009.4 in SSE 13.0 mph 13.0 mph 81 % 0.0 in 77.0 W/m2 FEW
16:28 14.0 °F 11.0 °F 1009.7 in SE 13.0 mph 13.0 mph 82 % 0.0 in 95.0 W/m2 FEW
16:33 14.0 °F 10.8 °F 1009.7 in South 18.5 mph 18.5 mph 81 % 0.0 in 76.0 W/m2 CLR
16:38 14.0 °F 10.8 °F 1009.7 in South 11.1 mph 11.1 mph 81 % 0.0 in 56.0 W/m2 FEW
16:43 14.0 °F 10.8 °F 1010.0 in Calm     81 % 0.0 in 35.0 W/m2 SCT
16:48 14.0 °F 10.8 °F 1010.0 in Calm     81 % 0.0 in 33.0 W/m2 BKN
16:53 13.7 °F 10.5 °F 1010.0 in NE 9.7 mph 9.7 mph 81 % 0.0 in 84.0 W/m2 BKN
16:58 13.7 °F 10.7 °F 1010.0 in East 3.7 mph   82 % 0.0 in 171.0 W/m2 SCT
17:03 13.8 °F 10.8 °F 1010.0 in Calm     82 % 0.0 in 188.0 W/m2 CLR
17:08 13.8 °F 10.4 °F 1010.0 in Calm     80 % 0.0 in 149.0 W/m2 CLR
17:13 13.7 °F 10.3 °F 1010.0 in ENE 9.3 mph 9.3 mph 80 % 0.0 in 146.0 W/m2 CLR
17:18 13.6 °F 10.4 °F 1010.4 in ENE 5.6 mph 5.6 mph 81 % 0.0 in 118.0 W/m2 CLR
17:23 13.5 °F 10.5 °F 1010.4 in ENE 11.3 mph 11.3 mph 82 % 0.0 in 86.0 W/m2 CLR
17:28 13.4 °F 10.8 °F 1010.4 in ESE 9.3 mph 9.3 mph 84 % 0.0 in 63.0 W/m2 FEW
17:33 13.4 °F 10.8 °F 1010.4 in ESE 9.7 mph 9.7 mph 84 % 0.0 in 42.0 W/m2 BKN
17:38 13.4 °F 10.9 °F 1010.4 in East 11.1 mph 11.1 mph 85 % 0.0 in 35.0 W/m2 BKN
17:43 13.4 °F 10.9 °F 1010.4 in Calm     85 % 0.0 in 26.0 W/m2 BKN
17:48 13.3 °F 10.9 °F 1010.7 in East 7.4 mph 7.4 mph 85 % 0.0 in 19.0 W/m2 BKN
17:53 13.3 °F 10.7 °F 1010.7 in Calm     84 % 0.0 in 12.0 W/m2 BKN
17:58 13.3 °F 10.8 °F 1010.7 in ESE 8.0 mph 8.0 mph 85 % 0.0 in 11.0 W/m2 BKN
18:03 13.2 °F 10.8 °F 1010.7 in ESE 11.1 mph 11.1 mph 85 % 0.0 in 9.0 W/m2 BKN
18:08 13.2 °F 10.7 °F 1010.7 in SE 5.6 mph   85 % 0.0 in 9.0 W/m2 BKN
18:13 13.1 °F 10.7 °F 1010.7 in Calm     85 % 0.0 in 7.0 W/m2 BKN
18:18 13.1 °F 10.6 °F 1010.7 in Calm     85 % 0.0 in 0.0 W/m2 OVC
18:23 13.0 °F 10.7 °F 1011.1 in Calm     86 % 0.0 in 0.0 W/m2 OVC
18:28 12.9 °F 10.7 °F 1011.1 in Calm     86 % 0.0 in 0.0 W/m2 OVC
18:33 12.9 °F 10.7 °F 1011.1 in SE 7.4 mph 7.4 mph 86 % 0.0 in 0.0 W/m2 OVC
18:38 12.9 °F 10.6 °F 1011.1 in Calm     86 % 0.0 in 0.0 W/m2 OVC
18:43 12.8 °F 10.6 °F 1011.1 in Calm     86 % 0.0 in 0.0 W/m2 CLR
18:48 12.8 °F 10.5 °F 1011.1 in Calm     86 % 0.0 in 0.0 W/m2 CLR
18:53 12.8 °F 10.5 °F 1011.4 in SSE 5.6 mph 5.6 mph 86 % 0.0 in 0.0 W/m2 CLR
18:58 12.8 °F 10.5 °F 1011.4 in Calm     86 % 0.0 in 0.0 W/m2 CLR
19:03 12.7 °F 10.4 °F 1011.4 in Calm     86 % 0.0 in 0.0 W/m2 CLR
19:08 12.7 °F 10.4 °F 1011.7 in Calm     86 % 0.0 in 0.0 W/m2 CLR
19:13 12.5 °F 9.5 °F 1012.4 in WNW 27.8 mph 27.8 mph 82 % 0.0 in 0.0 W/m2 CLR
19:18 12.3 °F 9.2 °F 1012.4 in WNW 22.5 mph 22.5 mph 81 % 0.0 in 0.0 W/m2 CLR
19:23 11.8 °F 9.2 °F 1012.8 in West 18.5 mph 18.5 mph 84 % 0.3 in 0.0 W/m2 RA
19:28 11.4 °F 8.9 °F 1012.8 in West 9.7 mph 9.7 mph 85 % 0.5 in 0.0 W/m2 RA
19:33 11.2 °F 8.9 °F 1012.8 in Calm     86 % 0.5 in 0.0 W/m2 CLR
19:38 11.0 °F 8.9 °F 1012.8 in Calm     87 % 0.5 in 0.0 W/m2 CLR
19:43 10.9 °F 8.8 °F 1013.1 in Calm     87 % 0.5 in 0.0 W/m2 RA
19:48 10.8 °F 8.9 °F 1013.1 in Calm     88 % 0.5 in 0.0 W/m2
19:53 10.7 °F 8.9 °F 1013.1 in Calm     89 % 0.5 in 0.0 W/m2 CLR
19:58 10.6 °F 8.9 °F 1013.1 in Calm     89 % 0.8 in 0.0 W/m2 RA
20:03 10.4 °F 8.9 °F 1013.1 in Calm     90 % 0.8 in 0.0 W/m2
20:08 10.4 °F 8.8 °F 1013.1 in Calm     90 % 0.8 in 0.0 W/m2 CLR
20:13 10.3 °F 8.9 °F 1013.4 in Calm     91 % 1.0 in 0.0 W/m2 RA
20:18 10.2 °F 8.8 °F 1013.4 in Calm     91 % 1.0 in 0.0 W/m2
20:23 10.2 °F 8.8 °F 1013.4 in Calm     91 % 1.0 in 0.0 W/m2 RA
20:28 10.2 °F 8.8 °F 1013.4 in Calm     91 % 1.3 in 0.0 W/m2 RA
20:29 10.2 °F 8.8 °F 1013.4 in Calm     91 % 1.3 in 0.0 W/m2 RA
20:34 10.2 °F 8.8 °F 1013.8 in Calm     91 % 1.3 in 0.0 W/m2 CLR
20:39 10.2 °F 8.8 °F 1013.8 in Calm     91 % 1.3 in 0.0 W/m2 CLR
20:44 10.1 °F 8.9 °F 1013.8 in Calm     92 % 1.0 in 0.0 W/m2 CLR
20:49 10.1 °F 8.7 °F 1013.8 in Calm     91 % 1.3 in 0.0 W/m2 RA
20:54 10.1 °F 8.8 °F 1014.1 in Calm     92 % 1.3 in 0.0 W/m2
20:59 10.0 °F 8.8 °F 1014.1 in Calm     92 % 1.0 in 0.0 W/m2 CLR
21:04 9.9 °F 8.7 °F 1014.4 in Calm     92 % 1.0 in 0.0 W/m2 CLR
21:09 9.9 °F 8.7 °F 1014.1 in Calm     92 % 1.0 in 0.0 W/m2 CLR
21:14 9.9 °F 8.7 °F 1014.4 in Calm     92 % 0.8 in 0.0 W/m2 CLR
21:19 9.9 °F 8.7 °F 1014.4 in Calm     92 % 0.5 in 0.0 W/m2 CLR
21:24 9.9 °F 8.7 °F 1014.4 in Calm     92 % 0.5 in 0.0 W/m2 CLR
21:29 9.8 °F 8.6 °F 1014.4 in Calm     92 % 0.3 in 0.0 W/m2 CLR
21:34 9.8 °F 8.6 °F 1014.4 in Calm     92 % 0.3 in 0.0 W/m2 CLR
21:39 9.7 °F 8.5 °F 1014.4 in Calm     92 % 0.3 in 0.0 W/m2 CLR
21:44 9.6 °F 8.4 °F 1014.4 in Calm     92 % 0.3 in 0.0 W/m2 CLR
21:49 9.5 °F 8.3 °F 1014.4 in Calm     92 % 0.0 in 0.0 W/m2 CLR
21:54 9.4 °F 8.2 °F 1014.4 in Calm     92 % 0.0 in 0.0 W/m2 CLR
21:59 9.3 °F 8.1 °F 1014.8 in Calm     92 % 0.0 in 0.0 W/m2 CLR
22:04 9.3 °F 8.2 °F 1014.8 in Calm     93 % 0.0 in 0.0 W/m2 CLR
22:09 9.2 °F 7.9 °F 1014.8 in Calm     92 % 0.0 in 0.0 W/m2 CLR
22:14 9.2 °F 8.1 °F 1014.8 in Calm     93 % 0.0 in 0.0 W/m2 CLR
22:19 9.2 °F 8.1 °F 1014.8 in Calm     93 % 0.0 in 0.0 W/m2 CLR
22:24 9.2 °F 8.1 °F 1014.8 in Calm     93 % 0.0 in 0.0 W/m2 CLR
22:29 9.2 °F 8.2 °F 1015.1 in Calm     93 % 0.0 in 0.0 W/m2 CLR
22:34 9.2 °F 8.2 °F 1015.1 in Calm     93 % 0.0 in 0.0 W/m2 CLR
22:39 9.2 °F 8.2 °F 1015.1 in Calm     93 % 0.0 in 0.0 W/m2 CLR
22:44 9.2 °F 8.2 °F 1015.1 in Calm     93 % 0.0 in 0.0 W/m2 CLR
22:49 9.2 °F 8.2 °F 1015.5 in Calm     93 % 0.0 in 0.0 W/m2 CLR
22:54 9.1 °F 8.1 °F 1015.5 in Calm     93 % 0.0 in 0.0 W/m2 CLR
22:59 9.0 °F 7.9 °F 1015.5 in Calm     93 % 0.0 in 0.0 W/m2 CLR
23:04 8.9 °F 7.9 °F 1015.5 in Calm     93 % 0.0 in 0.0 W/m2 CLR
23:09 8.8 °F 7.8 °F 1015.8 in Calm     93 % 0.0 in 0.0 W/m2 CLR
23:14 8.8 °F 7.7 °F 1015.8 in Calm     93 % 0.0 in 0.0 W/m2 CLR
23:19 8.7 °F 7.7 °F 1015.8 in Calm     93 % 0.0 in 0.0 W/m2 CLR
23:24 8.7 °F 7.7 °F 1015.8 in Calm     93 % 0.0 in 0.0 W/m2 CLR
23:29 8.7 °F 7.6 °F 1015.8 in Calm     93 % 0.0 in 0.0 W/m2 CLR
23:34 8.6 °F 7.6 °F 1015.8 in Calm     93 % 0.0 in 0.0 W/m2 CLR
23:39 8.6 °F 7.6 °F 1016.1 in Calm     93 % 0.0 in 0.0 W/m2 CLR
23:44 8.6 °F 7.6 °F 1016.1 in Calm     93 % 0.0 in 0.0 W/m2 CLR
23:49 8.6 °F 7.6 °F 1016.1 in Calm     93 % 0.0 in 0.0 W/m2 CLR
23:54 8.7 °F 7.7 °F 1016.1 in Calm     93 % 0.0 in 0.0 W/m2 CLR
23:59 8.9 °F 7.9 °F 1016.1 in Calm     93 % 0.0 in 0.0 W/m2 CLR
Lo Temps de Massalio
Compliments of Weather Underground - 1.25 mb